createdAt,value
2017-11-21T00:00:06.727Z,97446.40
2017-11-21T00:01:11.801Z,97446.34
2017-11-21T00:02:16.602Z,97452.71
2017-11-21T00:03:21.501Z,97445.33
2017-11-21T00:04:26.349Z,97445.20
2017-11-21T00:05:31.186Z,97439.15
2017-11-21T00:06:36.262Z,97443.17
2017-11-21T00:07:41.332Z,97440.50
2017-11-21T00:08:46.086Z,97447.92
2017-11-21T00:09:50.758Z,97443.61
2017-11-21T00:10:56.229Z,97442.39
2017-11-21T00:12:01.703Z,97438.81
2017-11-21T00:13:06.696Z,97436.83
2017-11-21T00:14:11.606Z,97445.61
2017-11-21T00:15:16.530Z,97445.42
2017-11-21T00:16:21.441Z,97443.27
2017-11-21T00:17:26.686Z,97446.63
2017-11-21T00:18:31.924Z,97447.58
2017-11-21T00:19:36.974Z,97444.02
2017-11-21T00:20:41.880Z,97443.21
2017-11-21T00:21:46.885Z,97446.65
2017-11-21T00:22:51.884Z,97444.57
2017-11-21T00:23:56.750Z,97445.00
2017-11-21T00:25:02.137Z,97451.03
2017-11-21T00:26:07.131Z,97443.27
2017-11-21T00:27:12.052Z,97451.07
2017-11-21T00:28:16.948Z,97445.16
2017-11-21T00:29:21.965Z,97443.15
2017-11-21T00:30:26.847Z,97443.98
2017-11-21T00:31:32.104Z,97446.79
2017-11-21T00:32:37.032Z,97448.24
2017-11-21T00:33:41.927Z,97448.61
2017-11-21T00:34:46.612Z,97448.53
2017-11-21T00:35:51.159Z,97442.33
2017-11-21T00:36:55.659Z,97444.71
2017-11-21T00:38:01.047Z,97448.30
2017-11-21T00:39:06.273Z,97454.16
2017-11-21T00:40:11.871Z,97448.26
2017-11-21T00:41:16.794Z,97448.99
2017-11-21T00:42:21.701Z,97447.99
2017-11-21T00:43:26.496Z,97450.67
2017-11-21T00:44:31.819Z,97446.33
2017-11-21T00:45:36.813Z,97447.92
2017-11-21T00:46:41.349Z,97449.61
2017-11-21T00:47:46.128Z,97452.17
2017-11-21T00:48:50.762Z,97445.32
2017-11-21T00:49:56.239Z,97457.30
2017-11-21T00:51:01.167Z,97441.56
2017-11-21T00:52:06.082Z,97448.19
2017-11-21T00:53:11.129Z,97443.00
2017-11-21T00:54:16.088Z,97447.20
2017-11-21T00:55:20.979Z,97441.42
2017-11-21T00:56:25.871Z,97444.33
2017-11-21T00:57:31.284Z,97442.41
2017-11-21T00:58:36.240Z,97449.23
2017-11-21T00:59:41.135Z,97450.36
2017-11-21T01:00:46.102Z,97447.50
2017-11-21T01:01:51.077Z,97447.50
2017-11-21T01:02:55.802Z,97440.08
2017-11-21T01:04:00.993Z,97447.22
2017-11-21T01:05:05.744Z,97439.33
2017-11-21T01:06:10.625Z,97436.66
2017-11-21T01:07:15.696Z,97431.30
2017-11-21T01:08:20.648Z,97434.33
2017-11-21T01:09:25.644Z,97432.48
2017-11-21T01:10:31.008Z,97438.58
2017-11-21T01:11:35.923Z,97433.21
2017-11-21T01:12:40.864Z,97434.17
2017-11-21T01:13:45.852Z,97433.98
2017-11-21T01:14:50.741Z,97431.98
2017-11-21T01:15:55.667Z,97433.92
2017-11-21T01:17:01.108Z,97433.05
2017-11-21T01:18:06.032Z,97439.91
2017-11-21T01:19:10.912Z,97432.00
2017-11-21T01:20:15.471Z,97436.59
2017-11-21T01:21:20.423Z,97431.64
2017-11-21T01:22:25.358Z,97437.25
2017-11-21T01:23:30.705Z,97421.28
2017-11-21T01:24:35.209Z,97421.48
2017-11-21T01:25:39.763Z,97425.80
2017-11-21T01:26:44.306Z,97427.77
2017-11-21T01:27:48.808Z,97422.13
2017-11-21T01:28:53.303Z,97422.13
2017-11-21T01:29:58.307Z,97416.73
2017-11-21T01:31:02.823Z,97420.35
2017-11-21T01:32:07.332Z,97430.44
2017-11-21T01:33:11.846Z,97423.18
2017-11-21T01:34:16.372Z,97424.34
2017-11-21T01:35:21.332Z,97423.94
2017-11-21T01:36:26.607Z,97430.72
2017-11-21T01:37:31.480Z,97425.03
2017-11-21T01:38:36.075Z,97417.58
2017-11-21T01:39:41.705Z,97439.60
2017-11-21T01:40:46.643Z,97434.63
2017-11-21T01:41:51.960Z,97435.80
2017-11-21T01:42:56.887Z,97432.13
2017-11-21T01:44:01.610Z,97436.56
2017-11-21T01:45:06.434Z,97429.39
2017-11-21T01:46:11.371Z,97428.79
2017-11-21T01:47:16.310Z,97427.90
2017-11-21T01:48:21.576Z,97430.77
2017-11-21T01:49:26.515Z,97425.83
2017-11-21T01:50:31.492Z,97432.48
2017-11-21T01:51:36.385Z,97436.17
2017-11-21T01:52:41.266Z,97452.58
2017-11-21T01:53:46.205Z,97438.22
2017-11-21T01:54:51.418Z,97442.17
2017-11-21T01:55:56.355Z,97439.02
2017-11-21T01:57:01.320Z,97429.22
2017-11-21T01:58:06.231Z,97428.38
2017-11-21T01:59:11.091Z,97431.72
2017-11-21T02:00:15.758Z,97439.51
2017-11-21T02:01:20.962Z,97429.78
2017-11-21T02:02:25.907Z,97436.80
2017-11-21T02:03:30.831Z,97430.11
2017-11-21T02:04:35.684Z,97434.66
2017-11-21T02:05:40.610Z,97433.35
2017-11-21T02:06:45.632Z,97430.25
2017-11-21T02:07:50.963Z,97425.83
2017-11-21T02:08:56.110Z,97433.66
2017-11-21T02:10:01.122Z,97435.11
2017-11-21T02:11:06.042Z,97430.59
2017-11-21T02:12:10.979Z,97437.41
2017-11-21T02:13:15.915Z,97441.48
2017-11-21T02:14:21.425Z,97435.88
2017-11-21T02:15:26.294Z,97432.19
2017-11-21T02:16:31.236Z,97438.92
2017-11-21T02:17:36.147Z,97440.66
2017-11-21T02:18:41.079Z,97438.45
2017-11-21T02:19:46.017Z,97436.14
2017-11-21T02:20:51.442Z,97437.42
2017-11-21T02:21:56.340Z,97433.63
2017-11-21T02:23:01.232Z,97439.18
2017-11-21T02:24:06.149Z,97434.10
2017-11-21T02:25:11.061Z,97432.56
2017-11-21T02:26:15.961Z,97430.88
2017-11-21T02:27:21.346Z,97435.63
2017-11-21T02:28:26.255Z,97434.18
2017-11-21T02:29:31.829Z,97431.23
2017-11-21T02:30:36.497Z,97430.05
2017-11-21T02:31:41.192Z,97423.27
2017-11-21T02:32:45.862Z,97423.95
2017-11-21T02:33:50.838Z,97433.56
2017-11-21T02:34:55.553Z,97421.21
2017-11-21T02:36:00.302Z,97430.23
2017-11-21T02:37:04.997Z,97429.93
2017-11-21T02:38:09.682Z,97420.03
2017-11-21T02:39:14.891Z,97423.59
2017-11-21T02:40:19.960Z,97418.46
2017-11-21T02:41:24.590Z,97429.36
2017-11-21T02:42:29.234Z,97422.05
2017-11-21T02:43:33.871Z,97425.44
2017-11-21T02:44:38.529Z,97420.88
2017-11-21T02:45:43.241Z,97415.39
2017-11-21T02:46:48.242Z,97416.73
2017-11-21T02:47:52.953Z,97422.91
2017-11-21T02:48:57.606Z,97424.23
2017-11-21T02:50:02.296Z,97430.85
2017-11-21T02:51:07.040Z,97432.44
2017-11-21T02:52:11.811Z,97433.20
2017-11-21T02:53:16.894Z,97432.87
2017-11-21T02:54:21.526Z,97430.00
2017-11-21T02:55:26.165Z,97435.25
2017-11-21T02:56:30.893Z,97430.73
2017-11-21T02:57:35.623Z,97438.08
2017-11-21T02:58:40.267Z,97442.07
2017-11-21T02:59:45.385Z,97433.38
2017-11-21T03:00:50.185Z,97435.53
2017-11-21T03:01:54.834Z,97423.18
2017-11-21T03:02:59.492Z,97438.92
2017-11-21T03:04:04.126Z,97428.39
2017-11-21T03:05:08.785Z,97438.97
2017-11-21T03:06:13.796Z,97435.16
2017-11-21T03:07:18.470Z,97433.20
2017-11-21T03:08:23.114Z,97440.45
2017-11-21T03:09:27.786Z,97432.17
2017-11-21T03:10:32.464Z,97432.71
2017-11-21T03:11:37.141Z,97435.62
2017-11-21T03:12:43.417Z,97433.55
2017-11-21T03:13:48.033Z,97428.71
2017-11-21T03:14:52.783Z,97428.62
2017-11-21T03:15:57.499Z,97432.47
2017-11-21T03:17:02.333Z,97432.52
2017-11-21T03:18:06.992Z,97427.38
2017-11-21T03:19:12.723Z,97431.78
2017-11-21T03:20:21.634Z,97430.41
2017-11-21T03:23:33.559Z,97432.34
2017-11-21T03:24:43.709Z,97430.00
2017-11-21T03:26:19.822Z,97425.63
2017-11-21T03:27:28.784Z,97429.47
2017-11-21T03:28:37.709Z,97426.64
2017-11-21T03:29:42.429Z,97432.65
2017-11-21T03:30:47.334Z,97439.20
2017-11-21T03:31:52.499Z,97432.74
2017-11-21T03:32:57.203Z,97430.89
2017-11-21T03:34:01.794Z,97431.25
2017-11-21T03:35:06.430Z,97437.18
2017-11-21T03:36:10.991Z,97440.81
2017-11-21T03:37:15.570Z,97435.45
2017-11-21T03:38:20.898Z,97431.83
2017-11-21T03:39:25.659Z,97434.57
2017-11-21T03:40:30.333Z,97442.59
2017-11-21T03:41:35.045Z,97436.42
2017-11-21T03:42:39.726Z,97437.19
2017-11-21T03:43:44.435Z,97433.88
2017-11-21T03:44:49.390Z,97437.70
2017-11-21T03:45:54.837Z,97436.86
2017-11-21T03:46:59.537Z,97440.17
2017-11-21T03:48:04.245Z,97442.14
2017-11-21T03:49:08.944Z,97445.37
2017-11-21T03:50:13.754Z,97444.12
2017-11-21T03:51:18.736Z,97444.03
2017-11-21T03:52:23.426Z,97453.83
2017-11-21T03:53:28.115Z,97443.20
2017-11-21T03:54:32.824Z,97438.33
2017-11-21T03:55:37.609Z,97451.64
2017-11-21T03:56:42.302Z,97444.95
2017-11-21T03:57:47.475Z,97445.97
2017-11-21T03:58:52.165Z,97440.24
2017-11-21T03:59:56.817Z,97442.91
2017-11-21T04:01:01.490Z,97432.56
2017-11-21T04:02:06.194Z,97453.22
2017-11-21T04:03:10.917Z,97439.13
2017-11-21T04:04:16.058Z,97456.61
2017-11-21T04:05:20.851Z,97451.98
2017-11-21T04:06:25.625Z,97452.80
2017-11-21T04:07:30.376Z,97444.17
2017-11-21T04:08:35.063Z,97444.17
2017-11-21T04:09:39.753Z,97457.95
2017-11-21T04:10:45.003Z,97453.26
2017-11-21T04:11:49.638Z,97438.27
2017-11-21T04:12:54.335Z,97443.41
2017-11-21T04:13:59.039Z,97449.53
2017-11-21T04:15:03.666Z,97446.47
2017-11-21T04:16:08.263Z,97444.41
2017-11-21T04:17:13.393Z,97446.70
2017-11-21T04:18:18.096Z,97455.07
2017-11-21T04:19:22.799Z,97452.38
2017-11-21T04:20:27.446Z,97453.16
2017-11-21T04:21:32.107Z,97444.52
2017-11-21T04:22:36.822Z,97449.77
2017-11-21T04:23:41.902Z,97452.38
2017-11-21T04:24:46.607Z,97452.00
2017-11-21T04:25:51.242Z,97457.70
2017-11-21T04:26:55.872Z,97444.98
2017-11-21T04:28:00.514Z,97451.11
2017-11-21T04:29:05.215Z,97456.77
2017-11-21T04:30:10.199Z,97462.97
2017-11-21T04:31:14.916Z,97452.76
2017-11-21T04:32:19.642Z,97450.09
2017-11-21T04:33:24.397Z,97445.53
2017-11-21T04:34:29.129Z,97450.47
2017-11-21T04:35:33.854Z,97450.87
2017-11-21T04:36:38.971Z,97448.20
2017-11-21T04:37:43.665Z,97457.69
2017-11-21T04:38:48.356Z,97456.67
2017-11-21T04:39:53.046Z,97452.02
2017-11-21T04:40:57.719Z,97458.92
2017-11-21T04:42:02.389Z,97455.41
2017-11-21T04:43:07.451Z,97462.05
2017-11-21T04:44:12.155Z,97456.80
2017-11-21T04:45:16.826Z,97455.78
2017-11-21T04:46:21.487Z,97456.16
2017-11-21T04:47:26.017Z,97458.73
2017-11-21T04:48:30.569Z,97458.30
2017-11-21T04:49:35.747Z,97457.59
2017-11-21T04:50:40.412Z,97445.45
2017-11-21T04:51:45.094Z,97450.00
2017-11-21T04:52:49.610Z,97454.70
2017-11-21T04:53:54.321Z,97459.45
2017-11-21T04:54:59.149Z,97449.28
2017-11-21T04:56:04.652Z,97457.60
2017-11-21T04:57:09.371Z,97456.88
2017-11-21T04:58:14.154Z,97460.74
2017-11-21T04:59:18.924Z,97454.86
2017-11-21T05:15:14.265Z,97456.16
2017-11-21T05:16:19.135Z,97449.95
2017-11-21T05:17:23.920Z,97453.09
2017-11-21T05:18:28.638Z,97448.81
2017-11-21T05:19:33.377Z,97444.97
2017-11-21T05:20:38.716Z,97445.44
2017-11-21T05:21:43.478Z,97442.25
2017-11-21T05:22:48.195Z,97449.32
2017-11-21T05:23:52.949Z,97455.94
2017-11-21T05:24:58.182Z,97447.05
2017-11-21T05:26:02.984Z,97458.02
2017-11-21T05:27:08.214Z,97450.47
2017-11-21T05:28:12.982Z,97454.35
2017-11-21T05:29:17.748Z,97456.02
2017-11-21T05:30:22.509Z,97462.27
2017-11-21T05:31:27.275Z,97455.28
2017-11-21T05:32:36.251Z,97455.34
2017-11-21T05:33:42.496Z,97451.50
2017-11-21T05:34:47.235Z,97462.71
2017-11-21T05:35:52.002Z,97463.30
2017-11-21T05:36:56.774Z,97457.93
2017-11-21T05:38:01.658Z,97452.88
2017-11-21T05:39:06.380Z,97447.11
2017-11-21T05:40:11.544Z,97454.45
2017-11-21T05:41:16.359Z,97455.73
2017-11-21T05:42:21.161Z,97451.53
2017-11-21T05:43:27.125Z,97445.80
2017-11-21T05:44:31.888Z,97457.72
2017-11-21T05:45:36.728Z,97454.45
2017-11-21T05:46:41.949Z,97459.34
2017-11-21T05:47:46.817Z,97456.49
2017-11-21T05:48:51.583Z,97457.11
2017-11-21T05:49:56.728Z,97459.41
2017-11-21T05:51:01.530Z,97458.92
2017-11-21T05:52:06.204Z,97454.18
2017-11-21T05:53:11.417Z,97456.85
2017-11-21T05:54:16.148Z,97453.07
2017-11-21T05:55:20.916Z,97461.33
2017-11-21T05:56:25.730Z,97453.15
2017-11-21T05:57:30.572Z,97462.00
2017-11-21T05:58:35.377Z,97446.08
2017-11-21T05:59:40.540Z,97457.84
2017-11-21T06:00:45.377Z,97454.98
2017-11-21T06:01:50.145Z,97461.69
2017-11-21T06:02:54.955Z,97464.56
2017-11-21T06:03:59.729Z,97468.48
2017-11-21T06:05:04.446Z,97465.58
2017-11-21T06:06:09.599Z,97467.89
2017-11-21T06:07:14.315Z,97475.64
2017-11-21T06:08:19.565Z,97464.38
2017-11-21T06:09:24.284Z,97463.80
2017-11-21T06:10:29.024Z,97463.20
2017-11-21T06:11:33.695Z,97468.53
2017-11-21T06:12:38.691Z,97472.42
2017-11-21T06:13:43.504Z,97479.13
2017-11-21T06:14:48.263Z,97470.98
2017-11-21T06:15:53.083Z,97478.37
2017-11-21T06:16:57.735Z,97480.09
2017-11-21T06:18:02.608Z,97475.81
2017-11-21T06:19:07.973Z,97468.17
2017-11-21T06:20:12.724Z,97476.27
2017-11-21T06:21:17.730Z,97469.33
2017-11-21T06:22:22.523Z,97464.94
2017-11-21T06:23:27.347Z,97468.89
2017-11-21T06:25:54.422Z,97469.09
2017-11-21T06:26:59.189Z,97468.53
2017-11-21T06:28:04.111Z,97469.25
2017-11-21T06:29:09.748Z,97461.99
2017-11-21T06:30:14.537Z,97471.03
2017-11-21T06:31:19.480Z,97463.16
2017-11-21T06:32:24.598Z,97469.06
2017-11-21T06:33:29.428Z,97477.55
2017-11-21T06:34:34.300Z,97469.02
2017-11-21T06:35:39.124Z,97467.77
2017-11-21T06:36:43.957Z,97461.78
2017-11-21T06:37:48.733Z,97469.19
2017-11-21T06:38:53.915Z,97466.23
2017-11-21T06:39:58.850Z,97469.75
2017-11-21T06:41:03.626Z,97476.04
2017-11-21T06:42:08.461Z,97474.72
2017-11-21T06:43:13.235Z,97468.19
2017-11-21T06:44:18.082Z,97475.38
2017-11-21T06:45:24.455Z,97476.00
2017-11-21T06:46:29.268Z,97483.15
2017-11-21T06:47:34.141Z,97488.80
2017-11-21T06:48:38.950Z,97483.29
2017-11-21T06:49:43.795Z,97480.45
2017-11-21T06:50:48.555Z,97483.13
2017-11-21T06:51:53.832Z,97485.55
2017-11-21T06:52:58.756Z,97473.53
2017-11-21T06:54:03.630Z,97477.93
2017-11-21T06:55:08.939Z,97476.48
2017-11-21T06:56:13.768Z,97481.86
2017-11-21T06:57:18.567Z,97485.37
2017-11-21T06:58:23.714Z,97484.53
2017-11-21T06:59:28.569Z,97481.75
2017-11-21T07:00:33.401Z,97489.66
2017-11-21T07:01:38.411Z,97494.48
2017-11-21T07:02:43.178Z,97490.95
2017-11-21T07:03:48.840Z,97490.83
2017-11-21T07:04:53.970Z,97488.69
2017-11-21T07:05:58.855Z,97491.42
2017-11-21T07:07:03.817Z,97495.98
2017-11-21T07:08:08.710Z,97483.15
2017-11-21T07:09:13.571Z,97499.59
2017-11-21T07:10:18.338Z,97489.28
2017-11-21T07:11:23.718Z,97495.41
2017-11-21T07:12:28.493Z,97482.40
2017-11-21T07:13:33.309Z,97498.17
2017-11-21T07:14:38.093Z,97501.68
2017-11-21T07:15:42.909Z,97496.94
2017-11-21T07:16:47.726Z,97509.37
2017-11-21T07:17:52.898Z,97507.47
2017-11-21T07:18:58.092Z,97508.48
2017-11-21T07:20:02.945Z,97509.20
2017-11-21T07:21:07.727Z,97515.22
2017-11-21T07:22:12.618Z,97512.44
2017-11-21T07:23:17.470Z,97517.73
2017-11-21T07:24:22.643Z,97524.20
2017-11-21T07:25:27.565Z,97512.52
2017-11-21T07:26:32.423Z,97520.77
2017-11-21T07:27:37.240Z,97531.02
2017-11-21T07:28:42.085Z,97531.02
2017-11-21T07:29:46.889Z,97525.04
2017-11-21T07:30:52.569Z,97516.29
2017-11-21T07:31:57.340Z,97515.16
2017-11-21T07:33:02.249Z,97522.42
2017-11-21T07:34:07.014Z,97527.23
2017-11-21T07:35:11.891Z,97517.73
2017-11-21T07:36:17.566Z,97518.43
2017-11-21T07:37:22.390Z,97516.45
2017-11-21T07:38:27.164Z,97514.99
2017-11-21T07:39:31.840Z,97527.07
2017-11-21T07:40:36.502Z,97515.87
2017-11-21T07:41:41.159Z,97514.57
2017-11-21T07:42:46.404Z,97512.09
2017-11-21T07:43:51.220Z,97517.50
2017-11-21T07:44:56.129Z,97525.84
2017-11-21T07:46:00.900Z,97524.81
2017-11-21T07:47:05.769Z,97526.48
2017-11-21T07:48:10.790Z,97531.08
2017-11-21T07:49:16.078Z,97530.80
2017-11-21T07:50:20.919Z,97535.45
2017-11-21T07:51:25.658Z,97538.67
2017-11-21T07:52:30.476Z,97531.42
2017-11-21T07:53:36.184Z,97541.67
2017-11-21T07:54:41.040Z,97522.89
2017-11-21T07:55:46.211Z,97534.44
2017-11-21T07:56:50.856Z,97536.53
2017-11-21T07:57:55.547Z,97522.31
2017-11-21T07:59:00.192Z,97534.77
2017-11-21T08:00:05.367Z,97535.29
2017-11-21T08:01:10.200Z,97541.38
2017-11-21T08:02:15.336Z,97542.23
2017-11-21T08:03:20.042Z,97534.16
2017-11-21T08:04:24.751Z,97541.38
2017-11-21T08:05:29.788Z,97537.17
2017-11-21T08:06:35.032Z,97530.64
2017-11-21T08:07:40.221Z,97546.83
2017-11-21T08:08:45.877Z,97529.47
2017-11-21T08:09:52.025Z,97537.39
2017-11-21T08:10:57.189Z,97532.78
2017-11-21T08:12:02.279Z,97538.34
2017-11-21T08:13:08.000Z,97535.39
2017-11-21T08:14:13.176Z,97533.53
2017-11-21T08:15:18.516Z,97537.75
2017-11-21T08:16:23.527Z,97537.73
2017-11-21T08:17:28.885Z,97537.30
2017-11-21T08:18:33.936Z,97529.91
2017-11-21T08:19:38.873Z,97532.52
2017-11-21T08:20:43.737Z,97534.02
2017-11-21T08:21:48.724Z,97544.00
2017-11-21T08:22:53.731Z,97536.72
2017-11-21T08:23:58.812Z,97541.38
2017-11-21T08:25:05.390Z,97533.11
2017-11-21T08:26:10.311Z,97538.40
2017-11-21T08:27:15.314Z,97535.05
2017-11-21T08:28:20.644Z,97533.63
2017-11-21T08:29:25.717Z,97537.27
2017-11-21T08:30:30.726Z,97545.30
2017-11-21T08:31:35.655Z,97541.14
2017-11-21T08:32:40.720Z,97542.39
2017-11-21T08:33:45.730Z,97543.84
2017-11-21T08:34:51.026Z,97559.47
2017-11-21T08:35:56.109Z,97542.84
2017-11-21T08:37:02.195Z,97536.48
2017-11-21T08:38:07.169Z,97528.12
2017-11-21T08:39:12.276Z,97543.06
2017-11-21T08:40:17.546Z,97530.45
2017-11-21T08:41:22.682Z,97533.04
2017-11-21T08:42:27.853Z,97526.50
2017-11-21T08:43:32.982Z,97539.18
2017-11-21T08:44:38.039Z,97533.96
2017-11-21T08:45:43.002Z,97536.08
2017-11-21T08:46:48.122Z,97536.08
2017-11-21T08:47:53.200Z,97527.19
2017-11-21T08:48:58.469Z,97526.41
2017-11-21T08:50:03.736Z,97527.56
2017-11-21T08:51:09.023Z,97525.77
2017-11-21T08:52:14.873Z,97528.05
2017-11-21T08:53:20.149Z,97523.03
2017-11-21T08:54:25.181Z,97532.80
2017-11-21T08:55:30.350Z,97541.59
2017-11-21T08:56:35.872Z,97549.16
2017-11-21T08:57:40.948Z,97539.27
2017-11-21T08:58:45.788Z,97533.20
2017-11-21T08:59:50.654Z,97530.58
2017-11-21T09:00:55.558Z,97543.17
2017-11-21T09:02:00.421Z,97537.92
2017-11-21T09:03:05.235Z,97544.23
2017-11-21T09:04:10.751Z,97544.55
2017-11-21T09:05:15.632Z,97540.31
2017-11-21T09:06:21.086Z,97533.34
2017-11-21T09:07:25.979Z,97541.75
2017-11-21T09:08:30.790Z,97539.22
2017-11-21T09:09:35.801Z,97539.89
2017-11-21T09:10:40.554Z,97544.91
2017-11-21T09:11:45.265Z,97545.95
2017-11-21T09:12:49.871Z,97534.29
2017-11-21T09:13:54.483Z,97546.48
2017-11-21T09:14:59.127Z,97545.98
2017-11-21T09:16:04.049Z,97531.26
2017-11-21T09:17:08.605Z,97545.31
2017-11-21T09:18:13.926Z,97531.55
2017-11-21T09:19:18.579Z,97538.41
2017-11-21T09:20:23.372Z,97532.53
2017-11-21T09:21:28.024Z,97533.30
2017-11-21T09:22:33.040Z,97536.03
2017-11-21T09:23:37.681Z,97534.55
2017-11-21T09:24:42.346Z,97543.25
2017-11-21T09:25:47.038Z,97532.06
2017-11-21T09:26:51.632Z,97541.34
2017-11-21T09:27:56.272Z,97539.33
2017-11-21T09:29:01.070Z,97546.19
2017-11-21T09:30:05.585Z,97538.81
2017-11-21T09:31:10.234Z,97537.56
2017-11-21T09:32:14.961Z,97530.45
2017-11-21T09:33:19.482Z,97526.61
2017-11-21T09:34:24.072Z,97535.46
2017-11-21T09:35:29.172Z,97535.88
2017-11-21T09:36:33.731Z,97538.41
2017-11-21T09:37:38.646Z,97535.36
2017-11-21T09:38:43.299Z,97539.13
2017-11-21T09:39:47.933Z,97538.11
2017-11-21T09:40:52.568Z,97542.25
2017-11-21T09:41:57.193Z,97539.28
2017-11-21T09:43:02.053Z,97532.42
2017-11-21T09:44:06.699Z,97532.59
2017-11-21T09:45:11.408Z,97543.68
2017-11-21T09:46:16.169Z,97538.28
2017-11-21T09:47:21.374Z,97545.57
2017-11-21T09:48:26.067Z,97536.44
2017-11-21T09:49:30.774Z,97532.08
2017-11-21T09:50:35.458Z,97534.10
2017-11-21T09:51:40.182Z,97543.59
2017-11-21T09:52:44.999Z,97529.53
2017-11-21T09:53:49.679Z,97537.29
2017-11-21T09:54:54.349Z,97548.28
2017-11-21T09:55:58.974Z,97535.20
2017-11-21T09:57:03.637Z,97543.47
2017-11-21T09:58:08.445Z,97545.42
2017-11-21T09:59:14.032Z,97548.35
2017-11-21T10:00:18.809Z,97551.57
2017-11-21T10:01:23.481Z,97557.64
2017-11-21T10:02:28.330Z,97549.41
2017-11-21T10:03:32.982Z,97555.55
2017-11-21T10:04:37.808Z,97548.01
2017-11-21T10:05:43.052Z,97544.77
2017-11-21T10:06:47.929Z,97546.42
2017-11-21T10:07:52.688Z,97551.56
2017-11-21T10:08:57.526Z,97547.20
2017-11-21T10:10:02.450Z,97553.32
2017-11-21T10:11:07.374Z,97561.19
2017-11-21T10:12:12.643Z,97549.97
2017-11-21T10:13:17.402Z,97562.93
2017-11-21T10:14:22.157Z,97553.71
2017-11-21T10:15:27.789Z,97555.88
2017-11-21T10:16:32.701Z,97555.39
2017-11-21T10:17:37.354Z,97554.14
2017-11-21T10:18:42.502Z,97553.55
2017-11-21T10:19:47.208Z,97547.88
2017-11-21T10:20:51.954Z,97550.02
2017-11-21T10:21:56.694Z,97557.13
2017-11-21T10:23:01.705Z,97548.72
2017-11-21T10:24:06.550Z,97544.20
2017-11-21T10:25:11.838Z,97548.88
2017-11-21T10:26:16.528Z,97550.80
2017-11-21T10:27:21.276Z,97552.19
2017-11-21T10:28:25.918Z,97542.84
2017-11-21T10:29:30.601Z,97547.35
2017-11-21T10:30:35.440Z,97550.13
2017-11-21T10:33:02.594Z,97551.55
2017-11-21T10:34:07.341Z,97545.30
2017-11-21T10:35:12.129Z,97542.44
2017-11-21T10:36:16.690Z,97534.27
2017-11-21T10:37:21.372Z,97548.35
2017-11-21T10:38:26.071Z,97541.92
2017-11-21T10:39:31.315Z,97543.67
2017-11-21T10:40:36.118Z,97538.80
2017-11-21T10:41:40.924Z,97543.62
2017-11-21T10:42:45.763Z,97538.08
2017-11-21T10:43:50.538Z,97534.88
2017-11-21T10:44:55.538Z,97536.91
2017-11-21T10:46:00.426Z,97543.33
2017-11-21T10:47:05.348Z,97540.97
2017-11-21T10:48:10.158Z,97528.59
2017-11-21T10:49:15.002Z,97535.12
2017-11-21T10:50:19.896Z,97534.98
2017-11-21T10:51:24.961Z,97530.77
2017-11-21T10:52:30.454Z,97523.53
2017-11-21T10:53:35.366Z,97520.48
2017-11-21T10:54:40.314Z,97523.98
2017-11-21T10:55:45.200Z,97522.41
2017-11-21T10:56:50.131Z,97519.26
2017-11-21T10:57:54.942Z,97519.09
2017-11-21T10:59:00.638Z,97519.26
2017-11-21T11:15:26.162Z,97521.56
2017-11-21T11:16:31.099Z,97520.15
2017-11-21T11:17:35.916Z,97508.55
2017-11-21T11:18:41.470Z,97515.40
2017-11-21T11:19:46.546Z,97510.89
2017-11-21T11:20:51.664Z,97508.64
2017-11-21T11:21:56.457Z,97520.06
2017-11-21T11:23:01.402Z,97514.83
2017-11-21T11:24:06.281Z,97519.84
2017-11-21T11:25:11.037Z,97508.20
2017-11-21T11:26:15.952Z,97508.13
2017-11-21T11:27:21.116Z,97507.80
2017-11-21T11:28:25.901Z,97517.64
2017-11-21T11:29:30.667Z,97513.71
2017-11-21T11:30:35.401Z,97515.06
2017-11-21T11:31:40.227Z,97521.14
2017-11-21T11:32:44.981Z,97517.48
2017-11-21T11:33:50.191Z,97518.06
2017-11-21T11:34:55.063Z,97519.05
2017-11-21T11:35:59.892Z,97521.95
2017-11-21T11:37:04.770Z,97510.41
2017-11-21T11:38:09.590Z,97518.78
2017-11-21T11:39:14.367Z,97515.78
2017-11-21T11:40:19.559Z,97508.98
2017-11-21T11:41:24.284Z,97501.41
2017-11-21T11:42:29.035Z,97510.54
2017-11-21T11:43:33.825Z,97509.70
2017-11-21T11:44:38.813Z,97508.03
2017-11-21T11:45:43.676Z,97507.50
2017-11-21T11:46:49.056Z,97503.74
2017-11-21T11:47:53.886Z,97502.98
2017-11-21T11:48:58.756Z,97499.39
2017-11-21T11:50:03.669Z,97500.77
2017-11-21T11:51:08.503Z,97493.18
2017-11-21T11:52:13.313Z,97501.45
2017-11-21T11:53:18.441Z,97506.78
2017-11-21T11:54:23.272Z,97500.06
2017-11-21T11:55:28.048Z,97504.18
2017-11-21T11:56:32.890Z,97503.05
2017-11-21T11:57:37.829Z,97499.44
2017-11-21T11:58:42.555Z,97494.92
2017-11-21T11:59:47.743Z,97500.11
2017-11-21T12:00:52.533Z,97497.70
2017-11-21T12:01:57.386Z,97495.23
2017-11-21T12:03:02.194Z,97496.84
2017-11-21T12:04:07.023Z,97502.89
2017-11-21T12:05:12.290Z,97502.79
2017-11-21T12:06:17.605Z,97508.78
2017-11-21T12:07:22.405Z,97508.48
2017-11-21T12:08:27.251Z,97509.28
2017-11-21T12:09:32.619Z,97507.45
2017-11-21T12:10:37.386Z,97503.34
2017-11-21T12:11:42.336Z,97504.86
2017-11-21T12:12:47.469Z,97508.31
2017-11-21T12:13:52.345Z,97510.31
2017-11-21T12:14:57.985Z,97504.09
2017-11-21T12:16:03.868Z,97504.55
2017-11-21T12:17:08.899Z,97511.53
2017-11-21T12:18:13.861Z,97504.45
2017-11-21T12:19:19.014Z,97505.22
2017-11-21T12:20:23.933Z,97504.01
2017-11-21T12:21:28.804Z,97506.38
2017-11-21T12:22:33.581Z,97509.28
2017-11-21T12:23:38.400Z,97512.43
2017-11-21T12:24:43.169Z,97508.44
2017-11-21T12:25:48.273Z,97507.63
2017-11-21T12:26:53.024Z,97507.41
2017-11-21T12:27:57.748Z,97504.80
2017-11-21T12:29:02.499Z,97498.23
2017-11-21T12:30:07.196Z,97502.53
2017-11-21T12:31:11.905Z,97497.69
2017-11-21T12:32:17.328Z,97505.44
2017-11-21T12:33:22.142Z,97503.33
2017-11-21T12:34:26.948Z,97512.20
2017-11-21T12:35:32.608Z,97501.50
2017-11-21T12:36:37.323Z,97500.83
2017-11-21T12:37:42.256Z,97504.23
2017-11-21T12:38:47.434Z,97500.59
2017-11-21T12:39:52.157Z,97500.78
2017-11-21T12:40:57.122Z,97493.17
2017-11-21T12:42:02.121Z,97505.61
2017-11-21T12:43:06.820Z,97505.21
2017-11-21T12:44:11.564Z,97506.02
2017-11-21T12:45:16.726Z,97501.09
2017-11-21T12:46:21.469Z,97500.02
2017-11-21T12:47:26.334Z,97502.66
2017-11-21T12:48:31.147Z,97498.18
2017-11-21T12:49:35.982Z,97493.08
2017-11-21T12:50:40.776Z,97498.09
2017-11-21T12:51:46.107Z,97490.44
2017-11-21T12:52:51.159Z,97495.50
2017-11-21T12:53:56.003Z,97489.28
2017-11-21T12:55:01.008Z,97490.04
2017-11-21T12:56:05.978Z,97488.87
2017-11-21T12:57:14.604Z,97481.70
2017-11-21T12:58:20.019Z,97487.08
2017-11-21T12:59:24.917Z,97484.13
2017-11-21T13:00:29.610Z,97482.64
2017-11-21T13:01:34.441Z,97480.05
2017-11-21T13:02:39.250Z,97479.38
2017-11-21T13:03:43.951Z,97486.77
2017-11-21T13:04:48.747Z,97479.88
2017-11-21T13:05:53.485Z,97479.39
2017-11-21T13:06:58.250Z,97484.98
2017-11-21T13:08:02.997Z,97481.09
2017-11-21T13:09:07.730Z,97475.44
2017-11-21T13:10:12.820Z,97477.33
2017-11-21T13:11:17.602Z,97477.13
2017-11-21T13:12:22.366Z,97482.15
2017-11-21T13:13:27.218Z,97486.69
2017-11-21T13:14:31.976Z,97477.13
2017-11-21T13:15:36.776Z,97477.49
2017-11-21T13:16:41.988Z,97482.52
2017-11-21T13:17:46.780Z,97473.42